sensor_id;sensor_type;location;lat;lon;timestamp;pressure;altitude;pressure_sealevel;temperature;humidity
10832;BME280;5469;48.574;8.768;2023-05-21T00:02:16;94505.75;;;17.74;65.78
10832;BME280;5469;48.574;8.768;2023-05-21T00:04:50;94516.09;;;17.84;65.30
10832;BME280;5469;48.574;8.768;2023-05-21T00:07:24;94503.84;;;18.04;64.27
10832;BME280;5469;48.574;8.768;2023-05-21T00:09:57;94508.66;;;17.89;65.60
10832;BME280;5469;48.574;8.768;2023-05-21T00:12:31;94508.09;;;17.75;66.80
10832;BME280;5469;48.574;8.768;2023-05-21T00:15:06;94505.34;;;17.63;67.03
10832;BME280;5469;48.574;8.768;2023-05-21T00:17:41;94503.78;;;17.62;68.07
10832;BME280;5469;48.574;8.768;2023-05-21T00:20:14;94497.47;;;17.58;67.75
10832;BME280;5469;48.574;8.768;2023-05-21T00:22:48;94503.69;;;17.50;69.19
10832;BME280;5469;48.574;8.768;2023-05-21T00:25:21;94495.31;;;17.51;69.11
10832;BME280;5469;48.574;8.768;2023-05-21T00:27:55;94495.06;;;17.35;70.57
10832;BME280;5469;48.574;8.768;2023-05-21T00:30:28;94490.66;;;17.39;70.29
10832;BME280;5469;48.574;8.768;2023-05-21T00:33:03;94492.66;;;17.51;69.20
10832;BME280;5469;48.574;8.768;2023-05-21T00:35:36;94480.75;;;17.61;67.24
10832;BME280;5469;48.574;8.768;2023-05-21T00:38:09;94485.22;;;17.57;68.19
10832;BME280;5469;48.574;8.768;2023-05-21T00:40:43;94486.47;;;17.51;67.63
10832;BME280;5469;48.574;8.768;2023-05-21T00:43:16;94482.44;;;17.44;68.28
10832;BME280;5469;48.574;8.768;2023-05-21T00:45:50;94474.69;;;17.52;67.95
10832;BME280;5469;48.574;8.768;2023-05-21T00:48:26;94477.47;;;17.55;67.18
10832;BME280;5469;48.574;8.768;2023-05-21T00:50:59;94477.47;;;17.55;67.18
10832;BME280;5469;48.574;8.768;2023-05-21T00:53:33;94477.13;;;17.36;67.27
10832;BME280;5469;48.574;8.768;2023-05-21T00:56:06;94481.78;;;17.47;66.53
10832;BME280;5469;48.574;8.768;2023-05-21T00:58:40;94477.56;;;17.38;68.37
10832;BME280;5469;48.574;8.768;2023-05-21T01:01:13;94474.28;;;17.32;69.15
10832;BME280;5469;48.574;8.768;2023-05-21T01:03:48;94480.25;;;17.38;68.17
10832;BME280;5469;48.574;8.768;2023-05-21T01:06:23;94474.66;;;17.22;70.12
10832;BME280;5469;48.574;8.768;2023-05-21T01:08:57;94478.16;;;17.14;70.21
10832;BME280;5469;48.574;8.768;2023-05-21T01:11:36;94480.31;;;17.29;69.59
10832;BME280;5469;48.574;8.768;2023-05-21T01:14:11;94474.47;;;17.27;69.36
10832;BME280;5469;48.574;8.768;2023-05-21T01:16:47;94474.00;;;17.25;70.08
10832;BME280;5469;48.574;8.768;2023-05-21T01:19:23;94476.31;;;17.35;68.65
10832;BME280;5469;48.574;8.768;2023-05-21T01:22:04;94473.47;;;17.11;70.59
10832;BME280;5469;48.574;8.768;2023-05-21T01:24:39;94469.94;;;17.19;70.19
10832;BME280;5469;48.574;8.768;2023-05-21T01:27:12;94464.22;;;17.29;69.10
10832;BME280;5469;48.574;8.768;2023-05-21T01:29:46;94467.31;;;17.10;70.01
10832;BME280;5469;48.574;8.768;2023-05-21T01:32:25;94455.84;;;17.10;70.89
10832;BME280;5469;48.574;8.768;2023-05-21T01:35:03;94466.59;;;17.31;68.36
10832;BME280;5469;48.574;8.768;2023-05-21T01:37:46;94462.84;;;17.23;68.60
10832;BME280;5469;48.574;8.768;2023-05-21T01:40:28;94453.69;;;17.24;68.33
10832;BME280;5469;48.574;8.768;2023-05-21T01:43:05;94458.47;;;17.18;69.43
10832;BME280;5469;48.574;8.768;2023-05-21T01:45:41;94450.38;;;17.27;67.64
10832;BME280;5469;48.574;8.768;2023-05-21T01:48:15;94452.31;;;17.18;68.94
10832;BME280;5469;48.574;8.768;2023-05-21T01:50:50;94457.50;;;17.23;69.35
10832;BME280;5469;48.574;8.768;2023-05-21T01:53:26;94457.94;;;17.25;68.55
10832;BME280;5469;48.574;8.768;2023-05-21T01:56:00;94454.25;;;17.09;70.49
10832;BME280;5469;48.574;8.768;2023-05-21T01:58:34;94449.88;;;17.34;67.64
10832;BME280;5469;48.574;8.768;2023-05-21T02:01:08;94446.59;;;17.28;68.77
10832;BME280;5469;48.574;8.768;2023-05-21T02:03:42;94444.81;;;17.32;67.40
10832;BME280;5469;48.574;8.768;2023-05-21T02:06:16;94454.34;;;17.21;69.42
10832;BME280;5469;48.574;8.768;2023-05-21T02:08:49;94448.03;;;17.25;67.81
10832;BME280;5469;48.574;8.768;2023-05-21T02:11:25;94442.41;;;17.18;68.39
10832;BME280;5469;48.574;8.768;2023-05-21T02:13:58;94444.97;;;17.36;66.31
10832;BME280;5469;48.574;8.768;2023-05-21T02:16:32;94447.38;;;17.29;68.27
10832;BME280;5469;48.574;8.768;2023-05-21T02:19:05;94441.81;;;17.04;69.82
10832;BME280;5469;48.574;8.768;2023-05-21T02:21:41;94441.56;;;16.97;69.77
10832;BME280;5469;48.574;8.768;2023-05-21T02:24:14;94436.88;;;16.85;70.12
10832;BME280;5469;48.574;8.768;2023-05-21T02:26:49;94424.47;;;17.10;66.08
10832;BME280;5469;48.574;8.768;2023-05-21T02:29:23;94435.94;;;16.81;71.88
10832;BME280;5469;48.574;8.768;2023-05-21T02:31:56;94432.34;;;16.59;71.97
10832;BME280;5469;48.574;8.768;2023-05-21T02:34:30;94438.78;;;16.67;72.41
10832;BME280;5469;48.574;8.768;2023-05-21T02:37:04;94437.03;;;16.80;71.31
10832;BME280;5469;48.574;8.768;2023-05-21T02:39:37;94433.28;;;16.81;70.83
10832;BME280;5469;48.574;8.768;2023-05-21T02:42:12;94429.50;;;16.65;70.79
10832;BME280;5469;48.574;8.768;2023-05-21T02:44:46;94420.34;;;16.83;70.60
10832;BME280;5469;48.574;8.768;2023-05-21T02:47:19;94429.13;;;16.92;68.88
10832;BME280;5469;48.574;8.768;2023-05-21T02:49:54;94424.88;;;16.91;69.68
10832;BME280;5469;48.574;8.768;2023-05-21T02:52:30;94409.97;;;16.73;70.64
10832;BME280;5469;48.574;8.768;2023-05-21T02:55:04;94430.13;;;16.79;70.25
10832;BME280;5469;48.574;8.768;2023-05-21T02:57:39;94428.53;;;16.78;70.81
10832;BME280;5469;48.574;8.768;2023-05-21T03:00:13;94430.75;;;16.76;69.83
10832;BME280;5469;48.574;8.768;2023-05-21T03:02:47;94430.63;;;16.55;71.67
10832;BME280;5469;48.574;8.768;2023-05-21T03:05:20;94427.78;;;16.69;69.47
10832;BME280;5469;48.574;8.768;2023-05-21T03:07:54;94421.09;;;16.45;72.99
10832;BME280;5469;48.574;8.768;2023-05-21T03:10:27;94420.56;;;16.60;70.99
10832;BME280;5469;48.574;8.768;2023-05-21T03:13:02;94426.44;;;16.45;73.52
10832;BME280;5469;48.574;8.768;2023-05-21T03:15:37;94424.66;;;16.58;71.87
10832;BME280;5469;48.574;8.768;2023-05-21T03:18:10;94414.41;;;16.69;70.37
10832;BME280;5469;48.574;8.768;2023-05-21T03:20:44;94422.00;;;16.49;72.49
10832;BME280;5469;48.574;8.768;2023-05-21T03:23:17;94425.44;;;16.58;71.82
10832;BME280;5469;48.574;8.768;2023-05-21T03:25:50;94420.75;;;16.55;71.06
10832;BME280;5469;48.574;8.768;2023-05-21T03:28:25;94424.50;;;16.54;71.56
10832;BME280;5469;48.574;8.768;2023-05-21T03:30:58;64575.81;;;-144.83;100.00
10832;BME280;5469;48.574;8.768;2023-05-21T03:33:32;64575.81;;;-144.83;100.00
10832;BME280;5469;48.574;8.768;2023-05-21T03:36:06;64575.81;;;-144.83;100.00
10832;BME280;5469;48.574;8.768;2023-05-21T03:38:39;64575.81;;;-144.83;100.00
10832;BME280;5469;48.574;8.768;2023-05-21T03:41:13;64575.81;;;-144.83;100.00
10832;BME280;5469;48.574;8.768;2023-05-21T03:43:48;64575.81;;;-144.83;100.00
10832;BME280;5469;48.574;8.768;2023-05-21T03:46:21;64575.81;;;-144.83;100.00
10832;BME280;5469;48.574;8.768;2023-05-21T03:48:54;64575.81;;;-144.83;100.00
10832;BME280;5469;48.574;8.768;2023-05-21T03:51:29;64575.81;;;-144.83;100.00
10832;BME280;5469;48.574;8.768;2023-05-21T03:54:02;64575.81;;;-144.83;100.00
10832;BME280;5469;48.574;8.768;2023-05-21T03:56:36;64575.81;;;-144.83;100.00
10832;BME280;5469;48.574;8.768;2023-05-21T03:59:10;64575.81;;;-144.83;100.00
10832;BME280;5469;48.574;8.768;2023-05-21T04:01:44;64575.81;;;-144.83;100.00
10832;BME280;5469;48.574;8.768;2023-05-21T04:04:17;64575.81;;;-144.83;100.00
10832;BME280;5469;48.574;8.768;2023-05-21T04:06:50;64575.81;;;-144.83;100.00
10832;BME280;5469;48.574;8.768;2023-05-21T04:09:25;64575.81;;;-144.83;100.00
10832;BME280;5469;48.574;8.768;2023-05-21T04:11:58;64575.81;;;-144.83;100.00
10832;BME280;5469;48.574;8.768;2023-05-21T04:14:33;64575.81;;;-144.83;100.00
10832;BME280;5469;48.574;8.768;2023-05-21T04:17:07;64575.81;;;-144.83;100.00
10832;BME280;5469;48.574;8.768;2023-05-21T04:19:43;64575.81;;;-144.83;100.00
10832;BME280;5469;48.574;8.768;2023-05-21T04:22:16;64575.81;;;-144.83;100.00
10832;BME280;5469;48.574;8.768;2023-05-21T04:24:50;64575.81;;;-144.83;0.00
10832;BME280;5469;48.574;8.768;2023-05-21T04:27:24;94441.72;;;16.27;74.50
10832;BME280;5469;48.574;8.768;2023-05-21T04:29:58;94442.38;;;15.98;75.91
10832;BME280;5469;48.574;8.768;2023-05-21T04:32:32;94437.16;;;16.28;73.18
10832;BME280;5469;48.574;8.768;2023-05-21T04:35:06;94448.81;;;16.32;74.44
10832;BME280;5469;48.574;8.768;2023-05-21T04:37:41;94453.66;;;16.21;76.48
10832;BME280;5469;48.574;8.768;2023-05-21T04:40:16;94446.28;;;16.27;73.68
10832;BME280;5469;48.574;8.768;2023-05-21T04:42:55;94451.59;;;16.44;73.65
10832;BME280;5469;48.574;8.768;2023-05-21T04:45:30;94454.88;;;16.50;73.94
10832;BME280;5469;48.574;8.768;2023-05-21T04:48:04;94451.75;;;16.48;74.25
10832;BME280;5469;48.574;8.768;2023-05-21T04:50:38;84877.25;;;16.67;100.00
10832;BME280;5469;48.574;8.768;2023-05-21T04:53:12;64575.81;;;-144.83;100.00
10832;BME280;5469;48.574;8.768;2023-05-21T04:55:45;64575.81;;;-144.83;100.00
10832;BME280;5469;48.574;8.768;2023-05-21T04:58:19;64575.81;;;-144.83;100.00
10832;BME280;5469;48.574;8.768;2023-05-21T05:00:53;64575.81;;;-144.83;100.00
10832;BME280;5469;48.574;8.768;2023-05-21T05:03:27;64575.81;;;-144.83;100.00
10832;BME280;5469;48.574;8.768;2023-05-21T05:06:00;64575.81;;;-144.83;100.00
10832;BME280;5469;48.574;8.768;2023-05-21T05:08:35;64575.81;;;-144.83;100.00
10832;BME280;5469;48.574;8.768;2023-05-21T05:11:08;64575.81;;;-144.83;100.00
10832;BME280;5469;48.574;8.768;2023-05-21T05:13:42;64575.81;;;-144.83;100.00
10832;BME280;5469;48.574;8.768;2023-05-21T05:16:16;64575.81;;;-144.83;100.00
10832;BME280;5469;48.574;8.768;2023-05-21T05:18:56;64575.81;;;-144.83;100.00
10832;BME280;5469;48.574;8.768;2023-05-21T05:21:29;64575.81;;;-144.83;100.00
10832;BME280;5469;48.574;8.768;2023-05-21T05:24:03;64575.81;;;-144.83;100.00
10832;BME280;5469;48.574;8.768;2023-05-21T05:26:36;64575.81;;;-144.83;100.00
10832;BME280;5469;48.574;8.768;2023-05-21T05:29:09;64575.81;;;-144.83;100.00
10832;BME280;5469;48.574;8.768;2023-05-21T05:31:44;64575.81;;;-144.83;100.00
10832;BME280;5469;48.574;8.768;2023-05-21T05:34:18;64575.81;;;-144.83;100.00
10832;BME280;5469;48.574;8.768;2023-05-21T05:36:52;64575.81;;;-144.83;100.00
10832;BME280;5469;48.574;8.768;2023-05-21T05:39:25;94454.84;;;16.67;71.85
10832;BME280;5469;48.574;8.768;2023-05-21T05:41:59;94463.78;;;17.78;72.57
10832;BME280;5469;48.574;8.768;2023-05-21T05:44:32;94462.88;;;17.95;70.98
10832;BME280;5469;48.574;8.768;2023-05-21T05:47:07;94470.41;;;18.01;70.36
10832;BME280;5469;48.574;8.768;2023-05-21T05:49:41;94471.16;;;17.60;73.90
10832;BME280;5469;48.574;8.768;2023-05-21T05:52:15;94466.38;;;17.95;73.37
10832;BME280;5469;48.574;8.768;2023-05-21T05:54:48;94466.69;;;17.94;73.92
10832;BME280;5469;48.574;8.768;2023-05-21T05:57:22;94473.59;;;17.95;73.63
10832;BME280;5469;48.574;8.768;2023-05-21T05:59:55;94465.25;;;18.17;70.78
10832;BME280;5469;48.574;8.768;2023-05-21T06:02:30;94459.13;;;17.96;73.20
10832;BME280;5469;48.574;8.768;2023-05-21T06:05:03;94464.78;;;18.48;70.66
10832;BME280;5469;48.574;8.768;2023-05-21T06:07:39;94464.25;;;18.55;70.33
10832;BME280;5469;48.574;8.768;2023-05-21T06:10:12;94467.84;;;18.05;71.84
10832;BME280;5469;48.574;8.768;2023-05-21T06:12:46;94472.22;;;18.30;71.39
10832;BME280;5469;48.574;8.768;2023-05-21T06:15:19;94470.09;;;18.69;69.47
10832;BME280;5469;48.574;8.768;2023-05-21T06:17:54;94469.28;;;18.90;67.87
10832;BME280;5469;48.574;8.768;2023-05-21T06:20:27;94479.84;;;19.07;68.99
10832;BME280;5469;48.574;8.768;2023-05-21T06:23:01;94476.66;;;18.93;68.99
10832;BME280;5469;48.574;8.768;2023-05-21T06:25:34;94467.53;;;18.61;70.38
10832;BME280;5469;48.574;8.768;2023-05-21T06:28:08;94476.81;;;18.63;70.63
10832;BME280;5469;48.574;8.768;2023-05-21T06:30:41;94475.34;;;19.11;68.64
10832;BME280;5469;48.574;8.768;2023-05-21T06:33:16;94478.91;;;19.03;68.27
10832;BME280;5469;48.574;8.768;2023-05-21T06:35:50;94475.13;;;19.04;69.92
10832;BME280;5469;48.574;8.768;2023-05-21T06:38:23;94470.00;;;19.36;66.98
10832;BME280;5469;48.574;8.768;2023-05-21T06:40:57;64575.81;;;-144.83;100.00
10832;BME280;5469;48.574;8.768;2023-05-21T06:43:30;64575.81;;;-144.83;100.00
10832;BME280;5469;48.574;8.768;2023-05-21T06:46:03;94469.06;;;19.81;65.19
10832;BME280;5469;48.574;8.768;2023-05-21T06:48:38;94460.50;;;20.03;65.29
10832;BME280;5469;48.574;8.768;2023-05-21T06:51:12;94473.72;;;20.08;65.13
10832;BME280;5469;48.574;8.768;2023-05-21T06:53:45;94479.81;;;19.93;65.09
10832;BME280;5469;48.574;8.768;2023-05-21T06:56:19;94477.16;;;19.69;65.73
10832;BME280;5469;48.574;8.768;2023-05-21T06:58:52;94482.16;;;19.58;65.46
10832;BME280;5469;48.574;8.768;2023-05-21T07:01:26;94485.66;;;19.46;64.68
10832;BME280;5469;48.574;8.768;2023-05-21T07:04:00;94468.19;;;19.52;65.34
10832;BME280;5469;48.574;8.768;2023-05-21T07:06:34;94480.63;;;19.57;66.20
10832;BME280;5469;48.574;8.768;2023-05-21T07:09:07;94478.00;;;19.97;64.64
10832;BME280;5469;48.574;8.768;2023-05-21T07:11:41;94482.06;;;19.79;64.19
10832;BME280;5469;48.574;8.768;2023-05-21T07:14:15;94482.75;;;19.76;65.00
10832;BME280;5469;48.574;8.768;2023-05-21T07:16:48;94489.19;;;19.99;63.67
10832;BME280;5469;48.574;8.768;2023-05-21T07:19:23;94485.75;;;20.27;62.90
10832;BME280;5469;48.574;8.768;2023-05-21T07:21:56;94472.50;;;20.06;64.58
10832;BME280;5469;48.574;8.768;2023-05-21T07:24:30;94487.41;;;20.03;64.21
10832;BME280;5469;48.574;8.768;2023-05-21T07:27:03;94486.00;;;20.22;63.56
10832;BME280;5469;48.574;8.768;2023-05-21T07:29:37;94488.91;;;20.29;63.13
10832;BME280;5469;48.574;8.768;2023-05-21T07:32:11;94481.44;;;20.38;64.05
10832;BME280;5469;48.574;8.768;2023-05-21T07:34:46;94482.88;;;20.20;63.83
10832;BME280;5469;48.574;8.768;2023-05-21T07:37:19;94475.69;;;20.52;63.95
10832;BME280;5469;48.574;8.768;2023-05-21T07:39:53;94483.44;;;19.73;66.68
10832;BME280;5469;48.574;8.768;2023-05-21T07:42:26;94489.72;;;19.77;66.08
10832;BME280;5469;48.574;8.768;2023-05-21T07:45:00;94472.94;;;20.36;63.95
10832;BME280;5469;48.574;8.768;2023-05-21T07:47:34;94470.97;;;20.49;65.32
10832;BME280;5469;48.574;8.768;2023-05-21T07:50:10;94467.25;;;20.98;63.05
10832;BME280;5469;48.574;8.768;2023-05-21T07:52:44;94475.19;;;21.22;61.48
10832;BME280;5469;48.574;8.768;2023-05-21T07:55:17;94471.34;;;21.23;61.29
10832;BME280;5469;48.574;8.768;2023-05-21T07:57:50;94465.22;;;21.38;61.31
10832;BME280;5469;48.574;8.768;2023-05-21T08:00:24;94473.47;;;21.46;60.84
10832;BME280;5469;48.574;8.768;2023-05-21T08:02:57;94468.00;;;21.77;60.91
10832;BME280;5469;48.574;8.768;2023-05-21T08:05:32;94467.47;;;21.88;60.93
10832;BME280;5469;48.574;8.768;2023-05-21T08:08:06;94467.47;;;21.88;58.82
10832;BME280;5469;48.574;8.768;2023-05-21T08:10:39;94466.88;;;21.78;59.56
10832;BME280;5469;48.574;8.768;2023-05-21T08:13:13;94459.25;;;21.65;60.08
10832;BME280;5469;48.574;8.768;2023-05-21T08:15:47;94470.88;;;21.85;60.36
10832;BME280;5469;48.574;8.768;2023-05-21T08:18:20;94473.16;;;22.02;60.39
10832;BME280;5469;48.574;8.768;2023-05-21T08:20:56;94477.78;;;21.66;59.88
10832;BME280;5469;48.574;8.768;2023-05-21T08:23:29;94465.31;;;21.77;59.14
10832;BME280;5469;48.574;8.768;2023-05-21T08:26:03;94470.72;;;21.97;58.53
10832;BME280;5469;48.574;8.768;2023-05-21T08:28:37;94472.47;;;22.05;58.84
10832;BME280;5469;48.574;8.768;2023-05-21T08:31:11;94474.00;;;22.06;59.14
10832;BME280;5469;48.574;8.768;2023-05-21T08:33:49;94473.34;;;22.48;59.07
10832;BME280;5469;48.574;8.768;2023-05-21T08:36:24;94469.63;;;22.56;57.90
10832;BME280;5469;48.574;8.768;2023-05-21T08:38:58;94474.84;;;22.10;57.42
10832;BME280;5469;48.574;8.768;2023-05-21T08:41:34;94469.31;;;22.81;57.08
10832;BME280;5469;48.574;8.768;2023-05-21T08:44:10;94467.63;;;22.96;56.83
10832;BME280;5469;48.574;8.768;2023-05-21T08:46:44;94482.59;;;22.89;56.59
10832;BME280;5469;48.574;8.768;2023-05-21T08:49:22;94478.97;;;22.82;55.75
10832;BME280;5469;48.574;8.768;2023-05-21T08:52:00;94477.31;;;22.54;56.05
10832;BME280;5469;48.574;8.768;2023-05-21T08:54:35;94484.34;;;22.59;55.13
10832;BME280;5469;48.574;8.768;2023-05-21T08:57:11;94477.25;;;22.93;54.15
10832;BME280;5469;48.574;8.768;2023-05-21T08:59:45;94478.78;;;22.71;54.51
10832;BME280;5469;48.574;8.768;2023-05-21T09:02:19;94475.25;;;23.09;53.25
10832;BME280;5469;48.574;8.768;2023-05-21T09:04:53;94470.06;;;23.24;53.73
10832;BME280;5469;48.574;8.768;2023-05-21T09:07:33;94478.97;;;22.82;54.37
10832;BME280;5469;48.574;8.768;2023-05-21T09:10:12;94479.66;;;23.44;54.08
10832;BME280;5469;48.574;8.768;2023-05-21T09:12:45;94482.47;;;23.25;52.55
10832;BME280;5469;48.574;8.768;2023-05-21T09:15:20;94478.72;;;23.33;54.55
10832;BME280;5469;48.574;8.768;2023-05-21T09:17:53;94480.59;;;24.05;53.35
10832;BME280;5469;48.574;8.768;2023-05-21T09:20:27;94485.88;;;23.94;51.76
10832;BME280;5469;48.574;8.768;2023-05-21T09:23:03;94484.50;;;24.08;53.14
10832;BME280;5469;48.574;8.768;2023-05-21T09:25:38;94484.47;;;23.54;53.38
10832;BME280;5469;48.574;8.768;2023-05-21T09:28:13;94487.41;;;23.95;54.40
10832;BME280;5469;48.574;8.768;2023-05-21T09:30:47;94488.44;;;24.14;53.82
10832;BME280;5469;48.574;8.768;2023-05-21T09:33:25;94482.47;;;24.99;50.85
10832;BME280;5469;48.574;8.768;2023-05-21T09:36:00;94485.13;;;25.33;51.52
10832;BME280;5469;48.574;8.768;2023-05-21T09:38:35;94488.41;;;24.74;54.10
10832;BME280;5469;48.574;8.768;2023-05-21T09:41:09;94488.28;;;24.33;51.59
10832;BME280;5469;48.574;8.768;2023-05-21T09:43:43;94499.41;;;24.55;50.76
10832;BME280;5469;48.574;8.768;2023-05-21T09:46:20;94475.34;;;24.83;51.30
10832;BME280;5469;48.574;8.768;2023-05-21T09:48:57;94491.81;;;25.05;50.87
10832;BME280;5469;48.574;8.768;2023-05-21T09:51:31;94476.94;;;25.81;47.89
10832;BME280;5469;48.574;8.768;2023-05-21T09:54:05;94473.41;;;26.39;50.17
10832;BME280;5469;48.574;8.768;2023-05-21T09:56:39;94476.38;;;27.21;49.22
10832;BME280;5469;48.574;8.768;2023-05-21T09:59:12;94482.06;;;26.63;45.73
10832;BME280;5469;48.574;8.768;2023-05-21T10:01:46;94474.06;;;27.45;45.03
10832;BME280;5469;48.574;8.768;2023-05-21T10:04:22;94480.50;;;28.48;44.63
10832;BME280;5469;48.574;8.768;2023-05-21T10:06:57;94483.19;;;28.62;43.53
10832;BME280;5469;48.574;8.768;2023-05-21T10:09:33;94472.06;;;30.44;41.50
10832;BME280;5469;48.574;8.768;2023-05-21T10:12:07;94468.44;;;31.12;40.65
10832;BME280;5469;48.574;8.768;2023-05-21T10:14:44;94475.34;;;29.38;40.90
10832;BME280;5469;48.574;8.768;2023-05-21T10:17:19;94480.53;;;30.87;39.33
10832;BME280;5469;48.574;8.768;2023-05-21T10:19:54;94469.50;;;31.18;38.35
10832;BME280;5469;48.574;8.768;2023-05-21T10:22:28;94469.50;;;30.60;38.48
10832;BME280;5469;48.574;8.768;2023-05-21T10:25:06;94474.00;;;31.83;38.86
10832;BME280;5469;48.574;8.768;2023-05-21T10:27:40;94473.09;;;31.89;41.52
10832;BME280;5469;48.574;8.768;2023-05-21T10:30:14;94479.63;;;32.19;36.90
10832;BME280;5469;48.574;8.768;2023-05-21T10:32:50;94476.09;;;32.62;37.71
10832;BME280;5469;48.574;8.768;2023-05-21T10:35:23;94461.97;;;31.53;38.38
10832;BME280;5469;48.574;8.768;2023-05-21T10:37:58;94472.63;;;31.20;37.35
10832;BME280;5469;48.574;8.768;2023-05-21T10:40:36;94466.16;;;31.07;38.31
10832;BME280;5469;48.574;8.768;2023-05-21T10:43:22;94464.66;;;30.72;37.60
10832;BME280;5469;48.574;8.768;2023-05-21T10:49:20;94467.88;;;32.62;37.66
10832;BME280;5469;48.574;8.768;2023-05-21T10:52:06;94477.88;;;32.29;36.90
10832;BME280;5469;48.574;8.768;2023-05-21T10:54:56;94460.19;;;31.66;37.29
10832;BME280;5469;48.574;8.768;2023-05-21T10:57:45;94465.72;;;32.90;36.84
10832;BME280;5469;48.574;8.768;2023-05-21T11:00:23;94465.38;;;33.40;35.74
10832;BME280;5469;48.574;8.768;2023-05-21T11:02:58;94464.00;;;33.16;35.58
10832;BME280;5469;48.574;8.768;2023-05-21T11:05:39;94470.28;;;32.16;35.37
10832;BME280;5469;48.574;8.768;2023-05-21T11:08:23;94467.97;;;33.64;37.41
10832;BME280;5469;48.574;8.768;2023-05-21T11:10:57;94464.38;;;33.83;35.95
10832;BME280;5469;48.574;8.768;2023-05-21T11:13:46;94465.53;;;33.33;35.50
10832;BME280;5469;48.574;8.768;2023-05-21T11:16:22;94461.59;;;33.34;37.08
10832;BME280;5469;48.574;8.768;2023-05-21T11:19:00;94463.47;;;33.54;37.18
10832;BME280;5469;48.574;8.768;2023-05-21T11:21:34;94467.34;;;32.87;35.75
10832;BME280;5469;48.574;8.768;2023-05-21T11:24:08;94471.41;;;31.75;37.62
10832;BME280;5469;48.574;8.768;2023-05-21T11:27:00;94457.69;;;33.68;35.27
10832;BME280;5469;48.574;8.768;2023-05-21T11:29:38;94470.69;;;33.80;35.88
10832;BME280;5469;48.574;8.768;2023-05-21T11:32:13;94460.84;;;34.57;32.10
10832;BME280;5469;48.574;8.768;2023-05-21T11:34:48;94463.47;;;33.54;32.98
10832;BME280;5469;48.574;8.768;2023-05-21T11:37:29;94462.47;;;33.64;34.83
10832;BME280;5469;48.574;8.768;2023-05-21T11:40:22;94465.94;;;32.79;36.57
10832;BME280;5469;48.574;8.768;2023-05-21T11:42:56;94457.16;;;34.19;33.19
10832;BME280;5469;48.574;8.768;2023-05-21T11:45:31;94455.09;;;33.44;33.32
10832;BME280;5469;48.574;8.768;2023-05-21T11:48:05;94453.06;;;32.36;34.92
10832;BME280;5469;48.574;8.768;2023-05-21T11:50:39;94464.50;;;32.54;35.51
10832;BME280;5469;48.574;8.768;2023-05-21T11:53:13;94466.00;;;32.95;34.33
10832;BME280;5469;48.574;8.768;2023-05-21T11:55:47;94462.53;;;32.11;33.24
10832;BME280;5469;48.574;8.768;2023-05-21T11:58:30;94459.44;;;32.89;32.09
10832;BME280;5469;48.574;8.768;2023-05-21T12:01:04;94460.78;;;34.15;32.96
10832;BME280;5469;48.574;8.768;2023-05-21T12:03:38;94461.34;;;33.78;32.04
10832;BME280;5469;48.574;8.768;2023-05-21T12:06:11;94471.88;;;32.94;33.30
10832;BME280;5469;48.574;8.768;2023-05-21T12:08:50;94468.31;;;32.37;37.08
10832;BME280;5469;48.574;8.768;2023-05-21T12:11:29;94466.03;;;32.35;35.75
10832;BME280;5469;48.574;8.768;2023-05-21T12:14:02;94458.56;;;30.91;37.30
10832;BME280;5469;48.574;8.768;2023-05-21T12:16:38;94472.44;;;31.82;36.01
10832;BME280;5469;48.574;8.768;2023-05-21T12:19:12;94468.66;;;31.25;35.78
10832;BME280;5469;48.574;8.768;2023-05-21T12:21:49;94458.38;;;32.67;36.87
10832;BME280;5469;48.574;8.768;2023-05-21T12:24:22;94476.44;;;32.64;37.07
10832;BME280;5469;48.574;8.768;2023-05-21T12:26:56;94468.75;;;32.35;33.78
10832;BME280;5469;48.574;8.768;2023-05-21T12:29:32;94474.47;;;31.27;34.77
10832;BME280;5469;48.574;8.768;2023-05-21T12:32:09;94471.66;;;31.34;34.75
10832;BME280;5469;48.574;8.768;2023-05-21T12:34:44;94470.81;;;31.37;36.68
10832;BME280;5469;48.574;8.768;2023-05-21T12:37:20;94465.56;;;31.73;36.08
10832;BME280;5469;48.574;8.768;2023-05-21T12:39:57;94465.06;;;32.02;34.05
10832;BME280;5469;48.574;8.768;2023-05-21T12:42:31;94473.19;;;32.09;35.86
10832;BME280;5469;48.574;8.768;2023-05-21T12:45:07;94476.81;;;32.03;34.38
10832;BME280;5469;48.574;8.768;2023-05-21T12:47:46;94475.47;;;32.54;33.17
10832;BME280;5469;48.574;8.768;2023-05-21T12:50:21;94480.09;;;32.77;34.34
10832;BME280;5469;48.574;8.768;2023-05-21T12:52:54;94483.84;;;32.24;34.96
10832;BME280;5469;48.574;8.768;2023-05-21T12:55:30;94484.84;;;32.13;34.43
10832;BME280;5469;48.574;8.768;2023-05-21T12:58:04;94484.25;;;32.46;34.11
10832;BME280;5469;48.574;8.768;2023-05-21T13:00:40;94483.56;;;32.98;32.94
10832;BME280;5469;48.574;8.768;2023-05-21T13:03:15;94483.22;;;33.48;33.55
10832;BME280;5469;48.574;8.768;2023-05-21T13:05:57;94477.28;;;34.45;30.98
10832;BME280;5469;48.574;8.768;2023-05-21T13:08:30;94477.22;;;33.70;31.48
10832;BME280;5469;48.574;8.768;2023-05-21T13:11:05;94468.91;;;34.77;32.71
10832;BME280;5469;48.574;8.768;2023-05-21T13:13:38;94474.28;;;35.10;29.20
10832;BME280;5469;48.574;8.768;2023-05-21T13:16:12;94474.06;;;33.71;32.51
10832;BME280;5469;48.574;8.768;2023-05-21T13:18:47;94473.50;;;35.96;31.62
10832;BME280;5469;48.574;8.768;2023-05-21T13:21:20;94474.25;;;35.36;30.71
10832;BME280;5469;48.574;8.768;2023-05-21T13:23:54;94470.72;;;35.48;30.88
10832;BME280;5469;48.574;8.768;2023-05-21T13:26:27;94483.38;;;33.09;32.03
10832;BME280;5469;48.574;8.768;2023-05-21T13:29:01;94472.13;;;32.43;31.78
10832;BME280;5469;48.574;8.768;2023-05-21T13:31:34;94475.41;;;34.42;31.79
10832;BME280;5469;48.574;8.768;2023-05-21T13:34:10;94484.88;;;34.41;30.86
10832;BME280;5469;48.574;8.768;2023-05-21T13:36:44;94479.69;;;34.59;31.71
10832;BME280;5469;48.574;8.768;2023-05-21T13:39:18;94485.00;;;34.92;31.85
10832;BME280;5469;48.574;8.768;2023-05-21T13:41:57;94480.00;;;35.29;31.03
10832;BME280;5469;48.574;8.768;2023-05-21T13:44:31;94483.03;;;34.79;31.05
10832;BME280;5469;48.574;8.768;2023-05-21T13:47:07;94486.69;;;33.69;32.18
10832;BME280;5469;48.574;8.768;2023-05-21T13:49:42;94481.34;;;33.29;32.53
10832;BME280;5469;48.574;8.768;2023-05-21T13:52:16;94499.00;;;33.28;31.61